createdAt,value
2023-03-10T00:01:31.804Z,22.50
2023-03-10T00:04:01.081Z,24.30
2023-03-10T00:06:34.399Z,24.93
2023-03-10T00:09:01.878Z,23.43
2023-03-10T00:11:28.753Z,25.53
2023-03-10T00:13:55.630Z,25.07
2023-03-10T00:16:27.478Z,26.00
2023-03-10T00:18:55.674Z,24.50
2023-03-10T00:21:26.330Z,24.77
2023-03-10T00:23:54.029Z,23.43
2023-03-10T00:26:22.139Z,25.10
2023-03-10T00:28:49.724Z,22.70
2023-03-10T00:31:23.643Z,24.40
2023-03-10T00:33:52.183Z,24.37
2023-03-10T00:36:22.830Z,23.60
2023-03-10T00:38:51.104Z,22.90
2023-03-10T00:41:22.691Z,22.87
2023-03-10T00:43:50.047Z,21.30
2023-03-10T00:46:17.509Z,23.67
2023-03-10T00:48:44.606Z,23.50
2023-03-10T00:51:12.202Z,22.33
2023-03-10T00:53:40.719Z,23.07
2023-03-10T00:56:12.880Z,27.80
2023-03-10T00:58:40.389Z,23.50
2023-03-10T01:01:34.509Z,23.37
2023-03-10T01:04:10.181Z,25.30
2023-03-10T01:06:37.151Z,23.50
2023-03-10T01:09:04.997Z,25.10
2023-03-10T01:11:32.720Z,25.00
2023-03-10T01:14:03.266Z,23.10
2023-03-10T01:16:30.597Z,23.30
2023-03-10T01:18:58.814Z,24.00
2023-03-10T01:21:34.110Z,24.07
2023-03-10T01:24:02.458Z,24.20
2023-03-10T01:26:30.639Z,23.00
2023-03-10T01:28:57.980Z,21.13
2023-03-10T01:31:25.007Z,23.40
2023-03-10T01:33:51.975Z,23.50
2023-03-10T01:36:25.760Z,23.90
2023-03-10T01:38:54.602Z,23.10
2023-03-10T01:41:22.415Z,24.17
2023-03-10T01:43:52.414Z,23.17
2023-03-10T01:46:31.270Z,24.20
2023-03-10T01:49:15.500Z,24.10
2023-03-10T01:51:47.921Z,24.17
2023-03-10T01:54:23.080Z,24.07
2023-03-10T01:56:52.375Z,25.07
2023-03-10T01:59:21.054Z,25.47
2023-03-10T02:01:50.534Z,24.93
2023-03-10T02:04:30.212Z,25.40
2023-03-10T02:06:57.438Z,23.87
2023-03-10T02:09:25.600Z,21.90
2023-03-10T02:11:53.085Z,24.17
2023-03-10T02:14:20.145Z,26.07
2023-03-10T02:16:47.333Z,24.37
2023-03-10T02:19:35.846Z,25.00
2023-03-10T02:22:07.441Z,24.97
2023-03-10T02:25:09.513Z,25.27
2023-03-10T02:27:39.377Z,24.47
2023-03-10T02:30:10.007Z,26.70
2023-03-10T02:32:46.217Z,24.93
2023-03-10T02:35:13.429Z,24.40
2023-03-10T02:37:50.797Z,24.60
2023-03-10T02:40:43.832Z,24.77
2023-03-10T02:43:23.990Z,24.60
2023-03-10T02:46:01.213Z,23.70
2023-03-10T02:48:36.894Z,24.60
2023-03-10T02:51:14.047Z,24.30
2023-03-10T02:53:41.400Z,24.40
2023-03-10T02:56:08.351Z,26.93
2023-03-10T02:58:37.185Z,25.23
2023-03-10T03:01:07.464Z,26.90
2023-03-10T03:03:39.222Z,23.53
2023-03-10T03:06:07.457Z,23.47
2023-03-10T03:08:34.729Z,23.73
2023-03-10T03:11:03.878Z,24.83
2023-03-10T03:13:31.485Z,24.13
2023-03-10T03:16:00.194Z,26.13
2023-03-10T03:18:27.172Z,23.40
2023-03-10T03:20:54.484Z,23.70
2023-03-10T03:23:21.461Z,24.57
2023-03-10T03:25:49.467Z,24.67
2023-03-10T03:28:19.069Z,24.67
2023-03-10T03:30:49.163Z,25.00
2023-03-10T03:33:16.126Z,22.93
2023-03-10T03:35:45.120Z,25.87
2023-03-10T03:38:13.476Z,24.40
2023-03-10T03:40:41.977Z,23.50
2023-03-10T03:43:12.647Z,25.83
2023-03-10T03:45:39.869Z,25.40
2023-03-10T03:48:06.827Z,24.70
2023-03-10T03:50:36.060Z,22.63
2023-03-10T03:53:09.446Z,23.93
2023-03-10T03:55:36.373Z,24.60
2023-03-10T03:58:03.419Z,24.90
2023-03-10T04:00:30.435Z,25.67
2023-03-10T04:03:03.833Z,25.47
2023-03-10T04:05:32.849Z,27.67
2023-03-10T04:08:00.553Z,25.90
2023-03-10T04:10:29.348Z,26.63
2023-03-10T04:12:57.110Z,25.97
2023-03-10T04:15:25.042Z,24.83
2023-03-10T04:17:52.165Z,25.30
2023-03-10T04:20:19.242Z,26.37
2023-03-10T04:22:49.499Z,24.67
2023-03-10T04:25:17.834Z,25.47
2023-03-10T04:27:45.671Z,26.17
2023-03-10T04:30:14.818Z,24.20
2023-03-10T04:32:47.867Z,27.40
2023-03-10T04:35:16.310Z,25.47
2023-03-10T04:37:44.858Z,26.30
2023-03-10T04:40:14.237Z,26.50
2023-03-10T04:42:42.409Z,24.50
2023-03-10T04:45:10.606Z,26.17
2023-03-10T04:47:40.440Z,23.20
2023-03-10T04:50:08.256Z,24.70
2023-03-10T04:52:35.583Z,27.00
2023-03-10T04:55:02.874Z,27.57
2023-03-10T04:57:30.411Z,27.03
2023-03-10T04:59:57.460Z,27.77
2023-03-10T05:02:25.092Z,30.00
2023-03-10T05:04:52.849Z,25.70
2023-03-10T05:07:21.368Z,27.60
2023-03-10T05:09:49.928Z,27.70
2023-03-10T05:12:16.976Z,26.27
2023-03-10T05:14:44.113Z,27.17
2023-03-10T05:17:11.968Z,25.40
2023-03-10T05:19:39.498Z,22.93
2023-03-10T05:22:08.001Z,26.87
2023-03-10T05:24:37.186Z,25.00
2023-03-10T05:27:04.619Z,26.03
2023-03-10T05:29:32.254Z,26.50
2023-03-10T05:32:07.391Z,25.00
2023-03-10T05:34:38.037Z,24.30
2023-03-10T05:37:05.155Z,21.33
2023-03-10T05:39:32.187Z,22.93
2023-03-10T05:42:03.138Z,21.33
2023-03-10T05:44:33.167Z,23.13
2023-03-10T05:47:02.137Z,22.60
2023-03-10T05:49:30.878Z,24.63
2023-03-10T05:51:58.968Z,23.17
2023-03-10T05:54:26.398Z,22.63
2023-03-10T05:56:53.485Z,21.83
2023-03-10T05:59:23.533Z,21.60
2023-03-10T06:01:52.069Z,22.53
2023-03-10T06:04:19.289Z,20.87
2023-03-10T06:06:46.190Z,21.07
2023-03-10T06:09:13.099Z,19.67
2023-03-10T06:11:40.041Z,20.57
2023-03-10T06:14:06.931Z,20.97
2023-03-10T06:16:33.844Z,20.83
2023-03-10T06:19:00.757Z,21.73
2023-03-10T06:21:29.420Z,18.03
2023-03-10T06:23:56.520Z,19.40
2023-03-10T06:26:24.283Z,22.87
2023-03-10T06:28:51.327Z,22.43
2023-03-10T06:31:23.346Z,23.10
2023-03-10T06:33:50.901Z,23.03
2023-03-10T06:36:18.953Z,24.17
2023-03-10T06:38:46.352Z,24.10
2023-03-10T06:41:13.630Z,25.13
2023-03-10T06:43:40.780Z,24.90
2023-03-10T06:46:10.175Z,20.63
2023-03-10T06:48:39.026Z,23.40
2023-03-10T06:51:13.260Z,24.03
2023-03-10T06:53:40.489Z,24.47
2023-03-10T06:56:12.232Z,25.00
2023-03-10T06:58:39.763Z,21.07
2023-03-10T07:01:08.007Z,20.70
2023-03-10T07:03:36.236Z,19.57
2023-03-10T07:06:03.108Z,20.47
2023-03-10T07:08:30.367Z,22.00
2023-03-10T07:10:57.668Z,19.67
2023-03-10T07:13:24.914Z,20.40
2023-03-10T07:15:52.041Z,19.73
2023-03-10T07:18:19.249Z,20.90
2023-03-10T07:20:48.167Z,18.67
2023-03-10T07:23:15.340Z,18.43
2023-03-10T07:25:42.345Z,19.83
2023-03-10T07:28:09.240Z,18.40
2023-03-10T07:30:36.644Z,19.30
2023-03-10T07:33:04.297Z,18.43
2023-03-10T07:35:31.232Z,19.13
2023-03-10T07:37:58.112Z,18.07
2023-03-10T07:40:25.196Z,16.93
2023-03-10T07:42:54.696Z,18.50
2023-03-10T07:45:24.507Z,16.10
2023-03-10T07:47:53.027Z,17.53
2023-03-10T07:50:21.258Z,18.60
2023-03-10T07:52:48.443Z,15.97
2023-03-10T07:55:15.309Z,15.87
2023-03-10T07:57:42.187Z,14.87
2023-03-10T08:00:10.390Z,14.70
2023-03-10T08:02:40.950Z,16.07
2023-03-10T08:05:10.104Z,14.27
2023-03-10T08:07:38.018Z,15.73
2023-03-10T08:10:06.217Z,15.63
2023-03-10T08:12:34.830Z,15.83
2023-03-10T08:15:01.924Z,14.20
2023-03-10T08:17:30.941Z,14.83
2023-03-10T08:19:58.708Z,13.83
2023-03-10T08:22:26.509Z,15.23
2023-03-10T08:24:53.872Z,13.90
2023-03-10T08:27:21.645Z,13.90
2023-03-10T08:29:48.541Z,13.63
2023-03-10T08:32:15.631Z,12.70
2023-03-10T08:34:43.141Z,12.77
2023-03-10T08:37:10.938Z,15.07
2023-03-10T08:39:38.020Z,14.20
2023-03-10T08:42:05.023Z,14.17
2023-03-10T08:44:31.934Z,14.53
2023-03-10T08:46:59.032Z,14.47
2023-03-10T08:49:26.117Z,13.47
2023-03-10T08:51:53.026Z,13.27
2023-03-10T08:54:22.177Z,14.03
2023-03-10T08:56:49.849Z,13.20
2023-03-10T08:59:16.833Z,12.77
2023-03-10T09:01:43.801Z,12.60
2023-03-10T09:04:10.999Z,13.10
2023-03-10T09:06:38.655Z,12.13
2023-03-10T09:09:08.347Z,13.97
2023-03-10T09:11:39.147Z,13.00
2023-03-10T09:14:07.767Z,14.57
2023-03-10T09:16:34.753Z,15.13
2023-03-10T09:19:02.392Z,13.10
2023-03-10T09:21:33.615Z,14.90
2023-03-10T09:24:01.562Z,13.77
2023-03-10T09:26:28.497Z,14.43
2023-03-10T09:28:57.059Z,15.83
2023-03-10T09:31:33.080Z,14.60
2023-03-10T09:34:00.304Z,13.37
2023-03-10T09:36:27.297Z,13.90
2023-03-10T09:38:54.280Z,14.90
2023-03-10T09:41:56.777Z,16.63
2023-03-10T09:44:51.277Z,15.13
2023-03-10T09:47:38.587Z,13.77
2023-03-10T09:50:33.726Z,13.90
2023-03-10T09:53:37.898Z,13.00
2023-03-10T09:56:15.946Z,15.40
2023-03-10T09:59:08.069Z,14.27
2023-03-10T10:01:35.367Z,15.83
2023-03-10T10:04:36.798Z,16.20
2023-03-10T10:07:15.587Z,16.10
2023-03-10T10:10:04.461Z,14.57
2023-03-10T10:12:32.783Z,17.50
2023-03-10T10:15:14.696Z,15.33
2023-03-10T10:18:33.519Z,14.67
2023-03-10T10:21:14.357Z,15.03
2023-03-10T10:23:47.675Z,14.70
2023-03-10T10:26:18.819Z,15.60
2023-03-10T10:28:54.375Z,15.60
2023-03-10T10:31:25.850Z,17.53
2023-03-10T10:34:22.744Z,15.53
2023-03-10T10:36:56.956Z,15.67
2023-03-10T10:39:40.727Z,14.63
2023-03-10T10:42:33.148Z,14.93
2023-03-10T10:45:04.371Z,16.00
2023-03-10T10:47:35.741Z,16.73
2023-03-10T10:50:18.009Z,16.07
2023-03-10T10:52:48.853Z,16.30
2023-03-10T10:55:34.724Z,16.20
2023-03-10T10:58:06.614Z,16.47
2023-03-10T11:00:37.414Z,16.13
2023-03-10T11:03:26.907Z,17.30
2023-03-10T11:05:56.339Z,17.87
2023-03-10T11:08:37.398Z,16.57
2023-03-10T11:11:36.444Z,16.23
2023-03-10T11:15:01.856Z,16.53
2023-03-10T11:17:33.394Z,16.43
2023-03-10T11:20:27.741Z,16.67
2023-03-10T11:23:20.293Z,17.57
2023-03-10T11:26:22.504Z,17.80
2023-03-10T11:28:54.124Z,16.60
2023-03-10T11:31:41.813Z,15.03
2023-03-10T11:34:30.329Z,16.53
2023-03-10T11:37:31.202Z,14.80
2023-03-10T11:40:28.406Z,16.93
2023-03-10T11:43:05.998Z,16.63
2023-03-10T11:45:54.626Z,15.83
2023-03-10T11:48:49.904Z,14.80
2023-03-10T11:51:29.137Z,17.43
2023-03-10T11:53:59.085Z,15.60
2023-03-10T11:56:27.589Z,16.20
2023-03-10T11:59:15.126Z,15.27
2023-03-10T12:02:19.392Z,15.77
2023-03-10T12:04:58.223Z,15.60
2023-03-10T12:07:38.166Z,14.80
2023-03-10T12:10:16.819Z,14.60
2023-03-10T12:12:46.920Z,15.40
2023-03-10T12:15:25.494Z,15.63
2023-03-10T12:17:54.187Z,14.60
2023-03-10T12:20:20.991Z,15.20
2023-03-10T12:22:53.187Z,15.70
2023-03-10T12:25:29.149Z,15.03
2023-03-10T12:28:24.333Z,15.63
2023-03-10T12:31:02.000Z,15.77
2023-03-10T12:33:33.645Z,13.73
2023-03-10T12:36:32.608Z,13.70
2023-03-10T12:39:28.081Z,14.47
2023-03-10T12:42:00.914Z,13.73
2023-03-10T12:44:48.707Z,13.70
2023-03-10T12:47:36.086Z,12.00
2023-03-10T12:50:22.695Z,11.73
2023-03-10T12:52:59.529Z,12.93
2023-03-10T12:55:28.138Z,14.30
2023-03-10T12:58:15.611Z,13.57
2023-03-10T13:00:55.856Z,11.73
2023-03-10T13:03:46.911Z,10.80
2023-03-10T13:06:13.734Z,10.93
2023-03-10T13:08:59.855Z,12.23
2023-03-10T13:11:48.696Z,12.07
2023-03-10T13:14:19.918Z,11.83
2023-03-10T13:17:00.584Z,10.70
2023-03-10T13:19:31.530Z,10.50
2023-03-10T13:21:58.994Z,12.80
2023-03-10T13:24:29.807Z,12.57
2023-03-10T13:27:19.477Z,12.40
2023-03-10T13:30:22.626Z,11.43
2023-03-10T13:32:56.715Z,10.57
2023-03-10T13:35:36.182Z,11.73
2023-03-10T13:38:11.874Z,11.90
2023-03-10T13:40:43.352Z,10.70
2023-03-10T13:43:37.565Z,11.10
2023-03-10T13:46:15.804Z,9.87
2023-03-10T13:48:43.408Z,9.93
2023-03-10T13:51:22.517Z,10.93
2023-03-10T13:53:53.236Z,9.30
2023-03-10T13:56:29.039Z,10.63
2023-03-10T13:59:02.419Z,8.87
2023-03-10T14:01:35.137Z,9.20
2023-03-10T14:04:08.799Z,10.00
2023-03-10T14:06:37.245Z,10.23
2023-03-10T14:09:24.757Z,9.20
2023-03-10T14:11:52.208Z,10.70
2023-03-10T14:14:34.240Z,10.63
2023-03-10T14:17:06.955Z,10.00
2023-03-10T14:19:48.443Z,9.70
2023-03-10T14:22:33.093Z,9.60
2023-03-10T14:25:01.824Z,9.13
2023-03-10T14:27:28.800Z,9.30
2023-03-10T14:30:01.415Z,9.70
2023-03-10T14:32:29.055Z,9.33
2023-03-10T14:34:56.046Z,8.30
2023-03-10T14:37:23.878Z,9.67
2023-03-10T14:39:50.767Z,7.90
2023-03-10T14:42:25.208Z,8.87
2023-03-10T14:44:53.300Z,8.53
2023-03-10T14:47:20.521Z,9.17
2023-03-10T14:49:47.509Z,9.53
2023-03-10T14:52:17.394Z,9.40
2023-03-10T14:54:44.446Z,10.00
2023-03-10T14:57:13.883Z,9.97
2023-03-10T14:59:41.030Z,10.13
2023-03-10T15:02:25.389Z,10.80
2023-03-10T15:04:52.433Z,10.10
2023-03-10T15:07:19.459Z,9.83
2023-03-10T15:09:46.472Z,10.50
2023-03-10T15:12:17.795Z,8.70
2023-03-10T15:14:52.496Z,10.80
2023-03-10T15:17:20.238Z,11.97
2023-03-10T15:19:47.140Z,11.17
2023-03-10T15:22:14.026Z,12.37
2023-03-10T15:24:41.007Z,11.20
2023-03-10T15:27:11.310Z,11.30
2023-03-10T15:29:38.231Z,11.90
2023-03-10T15:32:05.499Z,11.40
2023-03-10T15:34:32.546Z,11.50
2023-03-10T15:37:01.035Z,11.30
2023-03-10T15:39:31.828Z,11.17
2023-03-10T15:41:59.715Z,11.33
2023-03-10T15:44:26.616Z,11.27
2023-03-10T15:46:54.905Z,12.80
2023-03-10T15:49:22.004Z,12.87
2023-03-10T15:51:48.962Z,10.33
2023-03-10T15:54:15.871Z,11.20
2023-03-10T15:56:42.850Z,11.23
2023-03-10T15:59:09.966Z,11.60
2023-03-10T16:01:37.064Z,10.70
2023-03-10T16:04:05.857Z,11.23
2023-03-10T16:06:34.320Z,10.60
2023-03-10T16:09:01.442Z,11.03
2023-03-10T16:11:28.391Z,10.50
2023-03-10T16:13:55.319Z,10.37
2023-03-10T16:16:23.650Z,12.50
2023-03-10T16:18:51.220Z,10.83
2023-03-10T16:21:19.080Z,11.60
2023-03-10T16:23:46.466Z,11.90
2023-03-10T16:26:17.245Z,12.40
2023-03-10T16:28:52.528Z,10.37
2023-03-10T16:31:23.335Z,10.10
2023-03-10T16:33:51.488Z,12.03
2023-03-10T16:36:25.330Z,11.83
2023-03-10T16:38:53.748Z,11.50
2023-03-10T16:41:21.626Z,11.23
2023-03-10T16:43:48.602Z,11.70
2023-03-10T16:46:21.513Z,11.43
2023-03-10T16:48:48.905Z,12.50
2023-03-10T16:51:35.357Z,11.70
2023-03-10T16:54:05.375Z,12.83
2023-03-10T16:56:35.744Z,12.50
2023-03-10T16:59:02.653Z,12.27
2023-03-10T17:01:29.610Z,12.77
2023-03-10T17:03:56.729Z,12.00
2023-03-10T17:06:28.924Z,12.97
2023-03-10T17:08:56.812Z,11.80
2023-03-10T17:11:30.451Z,13.93
2023-03-10T17:14:01.584Z,13.23
2023-03-10T17:16:30.861Z,13.60
2023-03-10T17:19:01.185Z,12.23
2023-03-10T17:21:33.314Z,11.90
2023-03-10T17:24:00.247Z,11.60
2023-03-10T17:26:27.158Z,12.40
2023-03-10T17:28:54.064Z,13.50
2023-03-10T17:31:30.941Z,12.17
2023-03-10T17:34:04.585Z,14.57
2023-03-10T17:36:31.862Z,13.00
2023-03-10T17:39:01.928Z,11.87
2023-03-10T17:41:30.925Z,12.80
2023-03-10T17:43:57.814Z,12.77
2023-03-10T17:46:28.389Z,13.30
2023-03-10T17:48:56.300Z,13.50
2023-03-10T17:51:26.661Z,13.97
2023-03-10T17:53:54.419Z,14.30
2023-03-10T17:56:22.127Z,15.30
2023-03-10T17:58:50.055Z,13.00
2023-03-10T18:01:21.601Z,14.40
2023-03-10T18:03:48.814Z,13.20
2023-03-10T18:06:19.689Z,13.60
2023-03-10T18:08:46.989Z,14.60
2023-03-10T18:11:14.480Z,14.40
2023-03-10T18:13:41.964Z,13.07
2023-03-10T18:16:23.327Z,14.53
2023-03-10T18:18:50.279Z,14.37
2023-03-10T18:21:18.717Z,14.30
2023-03-10T18:23:46.530Z,14.67
2023-03-10T18:26:17.473Z,16.23
2023-03-10T18:28:44.646Z,16.60
2023-03-10T18:31:21.596Z,15.10
2023-03-10T18:33:48.979Z,16.70
2023-03-10T18:36:17.972Z,15.70
2023-03-10T18:38:47.105Z,16.03
2023-03-10T18:41:14.631Z,15.73
2023-03-10T18:43:41.549Z,15.23
2023-03-10T18:46:08.510Z,14.40
2023-03-10T18:48:35.486Z,18.23
2023-03-10T18:51:02.966Z,17.23
2023-03-10T18:53:29.864Z,16.80
2023-03-10T18:55:58.915Z,15.93
2023-03-10T18:58:26.882Z,15.67
2023-03-10T19:00:53.824Z,15.97
2023-03-10T19:03:20.724Z,17.07
2023-03-10T19:05:53.702Z,18.07
2023-03-10T19:08:22.210Z,19.50
2023-03-10T19:10:58.089Z,15.20
2023-03-10T19:13:28.164Z,19.03
2023-03-10T19:15:56.107Z,17.57
2023-03-10T19:18:24.068Z,17.77
2023-03-10T19:20:51.290Z,17.20
2023-03-10T19:23:18.273Z,16.43
2023-03-10T19:25:45.170Z,18.73
2023-03-10T19:28:12.104Z,20.07
2023-03-10T19:30:42.793Z,19.13
2023-03-10T19:33:10.855Z,18.60
2023-03-10T19:35:38.230Z,19.60
2023-03-10T19:38:05.528Z,16.33
2023-03-10T19:40:32.766Z,17.40
2023-03-10T19:42:59.813Z,18.50
2023-03-10T19:45:26.831Z,19.07
2023-03-10T19:47:57.826Z,17.47
2023-03-10T19:50:25.490Z,17.93
2023-03-10T19:52:52.606Z,18.03
2023-03-10T19:55:23.976Z,16.00
2023-03-10T19:57:53.952Z,17.00
2023-03-10T20:00:30.983Z,18.00
2023-03-10T20:02:58.519Z,16.07
2023-03-10T20:05:26.773Z,14.43
2023-03-10T20:07:53.907Z,17.83
2023-03-10T20:10:21.101Z,18.17
2023-03-10T20:12:51.088Z,16.30
2023-03-10T20:15:18.364Z,17.03
2023-03-10T20:17:45.648Z,16.20
2023-03-10T20:20:15.172Z,15.77
2023-03-10T20:22:45.517Z,16.17
2023-03-10T20:25:17.241Z,16.53
2023-03-10T20:27:45.251Z,15.73
2023-03-10T20:30:18.774Z,17.20
2023-03-10T20:32:45.976Z,14.43
2023-03-10T20:35:13.910Z,13.87
2023-03-10T20:37:41.993Z,15.50
2023-03-10T20:40:13.562Z,14.20
2023-03-10T20:42:41.238Z,15.00
2023-03-10T20:45:10.305Z,13.73
2023-03-10T20:47:37.788Z,15.17
2023-03-10T20:50:07.590Z,13.00
2023-03-10T20:52:36.590Z,14.80
2023-03-10T20:55:06.528Z,11.93
2023-03-10T20:57:34.685Z,14.60
2023-03-10T21:00:01.918Z,12.53
2023-03-10T21:02:29.014Z,11.90
2023-03-10T21:04:56.007Z,12.07
2023-03-10T21:07:22.896Z,13.27
2023-03-10T21:09:49.817Z,13.20
2023-03-10T21:12:18.627Z,13.07
2023-03-10T21:14:45.979Z,12.53
2023-03-10T21:17:13.058Z,12.50
2023-03-10T21:19:40.020Z,11.30
2023-03-10T21:22:06.920Z,11.80
2023-03-10T21:24:34.119Z,12.37
2023-03-10T21:27:01.219Z,11.20
2023-03-10T21:29:28.126Z,11.97
2023-03-10T21:31:55.033Z,11.47
2023-03-10T21:34:21.939Z,10.40
2023-03-10T21:36:48.798Z,11.47
2023-03-10T21:39:16.100Z,11.33
2023-03-10T21:41:42.999Z,10.10
2023-03-10T21:44:11.047Z,10.20
2023-03-10T21:46:37.977Z,9.00
2023-03-10T21:49:05.034Z,9.30
2023-03-10T21:51:34.621Z,9.57
2023-03-10T21:54:03.146Z,10.40
2023-03-10T21:56:30.113Z,10.50
2023-03-10T21:58:57.552Z,9.83
2023-03-10T22:01:24.766Z,9.10
2023-03-10T22:03:51.657Z,10.40
2023-03-10T22:06:18.560Z,8.87
2023-03-10T22:08:45.457Z,8.17
2023-03-10T22:11:13.030Z,8.10
2023-03-10T22:13:40.367Z,8.13
2023-03-10T22:16:10.600Z,9.00
2023-03-10T22:18:37.991Z,8.90
2023-03-10T22:21:05.328Z,7.30
2023-03-10T22:23:32.190Z,8.60
2023-03-10T22:25:59.090Z,7.90
2023-03-10T22:28:26.004Z,8.20
2023-03-10T22:30:52.910Z,8.33
2023-03-10T22:33:19.994Z,7.67
2023-03-10T22:35:51.853Z,8.17
2023-03-10T22:38:20.502Z,8.23
2023-03-10T22:40:48.056Z,7.63
2023-03-10T22:43:15.181Z,8.77
2023-03-10T22:45:42.085Z,7.80
2023-03-10T22:48:08.959Z,8.10
2023-03-10T22:50:43.651Z,6.90
2023-03-10T22:53:19.150Z,6.63
2023-03-10T22:55:47.862Z,7.30
2023-03-10T22:58:16.212Z,7.30
2023-03-10T23:00:43.782Z,8.80
2023-03-10T23:03:11.690Z,7.77
2023-03-10T23:05:38.733Z,8.33
2023-03-10T23:08:06.973Z,8.17
2023-03-10T23:10:35.639Z,7.00
2023-03-10T23:13:06.319Z,6.87
2023-03-10T23:15:36.721Z,6.83
2023-03-10T23:18:05.047Z,6.87
2023-03-10T23:20:36.608Z,6.27
2023-03-10T23:23:05.409Z,6.40
2023-03-10T23:25:35.096Z,5.67
2023-03-10T23:28:02.901Z,5.93
2023-03-10T23:30:30.203Z,5.73
2023-03-10T23:32:57.549Z,5.77
2023-03-10T23:35:31.201Z,6.20
2023-03-10T23:38:00.186Z,4.90
2023-03-10T23:40:30.000Z,4.87
2023-03-10T23:42:59.327Z,5.20
2023-03-10T23:45:28.958Z,4.53
2023-03-10T23:47:57.870Z,4.07
2023-03-10T23:50:37.493Z,4.87
2023-03-10T23:53:06.296Z,4.53
2023-03-10T23:55:37.217Z,4.80
2023-03-10T23:58:05.113Z,4.33
